createdAt,value
2023-03-15T00:00:18.745Z,38.6
2023-03-15T00:02:18.693Z,39.2
2023-03-15T00:04:18.700Z,39.3
2023-03-15T00:06:18.785Z,38.8
2023-03-15T00:08:18.738Z,38.5
2023-03-15T00:10:18.681Z,38.9
2023-03-15T00:12:18.676Z,39.3
2023-03-15T00:14:18.731Z,39.5
2023-03-15T00:16:18.835Z,39.8
2023-03-15T00:18:18.699Z,39.9
2023-03-15T00:20:18.678Z,40
2023-03-15T00:22:18.700Z,40.3
2023-03-15T00:24:18.673Z,40.9
2023-03-15T00:26:18.725Z,40.3
2023-03-15T00:28:18.673Z,40.2
2023-03-15T00:30:18.730Z,40.4
2023-03-15T00:32:18.672Z,40.1
2023-03-15T00:34:18.692Z,40.2
2023-03-15T00:36:18.686Z,40.2
2023-03-15T00:38:18.700Z,39.9
2023-03-15T00:40:18.658Z,39.8
2023-03-15T00:42:18.690Z,40.4
2023-03-15T00:44:18.674Z,40.5
2023-03-15T00:46:18.668Z,40.7
2023-03-15T00:48:18.627Z,40.8
2023-03-15T00:50:18.639Z,40.9
2023-03-15T00:52:18.651Z,40.6
2023-03-15T00:54:18.669Z,40.7
2023-03-15T00:56:18.626Z,40.9
2023-03-15T00:58:18.649Z,40.8
2023-03-15T01:00:18.720Z,40.4
2023-03-15T01:02:18.681Z,40.5
2023-03-15T01:04:18.621Z,39.6
2023-03-15T01:06:18.748Z,39.9
2023-03-15T01:08:18.693Z,39.4
2023-03-15T01:10:18.635Z,39
2023-03-15T01:12:18.672Z,39.6
2023-03-15T01:14:18.735Z,39.3
2023-03-15T01:16:18.686Z,39.7
2023-03-15T01:18:18.660Z,40.1
2023-03-15T01:20:18.725Z,40.7
2023-03-15T01:22:18.598Z,39.9
2023-03-15T01:24:18.638Z,39.5
2023-03-15T01:26:18.616Z,39.9
2023-03-15T01:28:18.631Z,39.8
2023-03-15T01:30:18.642Z,38.9
2023-03-15T01:32:18.603Z,39.1
2023-03-15T01:34:18.643Z,39.4
2023-03-15T01:36:18.621Z,39.9
2023-03-15T01:38:18.798Z,40.4
2023-03-15T01:40:18.574Z,39.9
2023-03-15T01:42:18.596Z,40.1
2023-03-15T01:44:18.612Z,40.5
2023-03-15T01:46:18.663Z,41
2023-03-15T01:48:18.707Z,40
2023-03-15T01:50:18.591Z,40.1
2023-03-15T01:52:18.602Z,40.1
2023-03-15T01:54:18.568Z,39.6
2023-03-15T01:56:18.642Z,40
2023-03-15T01:58:18.582Z,40.1
2023-03-15T02:00:18.595Z,39.5
2023-03-15T02:02:18.585Z,40
2023-03-15T02:04:18.590Z,40.4
2023-03-15T02:06:18.619Z,40.3
2023-03-15T02:08:18.539Z,40.3
2023-03-15T02:10:18.570Z,40
2023-03-15T02:12:18.658Z,40.4
2023-03-15T02:14:18.539Z,40.7
2023-03-15T02:16:18.723Z,41.1
2023-03-15T02:18:18.532Z,41.1
2023-03-15T02:20:18.533Z,40.8
2023-03-15T02:22:18.544Z,40.7
2023-03-15T02:24:18.562Z,40.6
2023-03-15T02:26:18.518Z,40.9
2023-03-15T02:28:18.531Z,41
2023-03-15T02:30:18.512Z,41.5
2023-03-15T02:32:18.565Z,40.9
2023-03-15T02:34:18.565Z,41.3
2023-03-15T02:36:18.652Z,41.5
2023-03-15T02:38:18.501Z,41.3
2023-03-15T02:40:18.491Z,41.6
2023-03-15T02:42:18.716Z,40.9
2023-03-15T02:44:18.530Z,41.2
2023-03-15T02:46:18.587Z,41.4
2023-03-15T02:48:18.494Z,41.1
2023-03-15T02:50:18.496Z,40.7
2023-03-15T02:52:18.614Z,40.6
2023-03-15T02:54:18.514Z,40.8
2023-03-15T02:56:18.507Z,40.5
2023-03-15T02:58:18.478Z,41.1
2023-03-15T03:00:18.508Z,41.4
2023-03-15T03:02:18.637Z,41.3
2023-03-15T03:04:18.458Z,42
2023-03-15T03:06:18.500Z,41.8
2023-03-15T03:08:18.504Z,41.6
2023-03-15T03:10:18.524Z,41.9
2023-03-15T03:12:18.534Z,41.5
2023-03-15T03:14:18.439Z,41.7
2023-03-15T03:16:18.507Z,42.2
2023-03-15T03:18:18.520Z,42.6
2023-03-15T03:20:18.526Z,42.6
2023-03-15T03:22:18.481Z,42.2
2023-03-15T03:24:18.440Z,41.9
2023-03-15T03:26:18.527Z,41.9
2023-03-15T03:28:18.504Z,41.9
2023-03-15T03:30:18.436Z,41.7
2023-03-15T03:32:18.440Z,42
2023-03-15T03:34:18.425Z,42.2
2023-03-15T03:36:18.486Z,42.4
2023-03-15T03:38:18.454Z,42.2
2023-03-15T03:40:18.440Z,42.2
2023-03-15T03:42:18.419Z,42
2023-03-15T03:44:18.485Z,41.6
2023-03-15T03:46:18.465Z,41.7
2023-03-15T03:48:18.487Z,42.1
2023-03-15T03:50:18.454Z,42.4
2023-03-15T03:52:18.427Z,42.7
2023-03-15T03:54:18.464Z,42.8
2023-03-15T03:56:18.497Z,42.6
2023-03-15T03:58:18.411Z,42.4
2023-03-15T04:00:18.399Z,42.6
2023-03-15T04:02:18.499Z,42.6
2023-03-15T04:04:18.461Z,42.8
2023-03-15T04:06:18.396Z,42.1
2023-03-15T04:08:18.412Z,42.3
2023-03-15T04:10:18.432Z,42.4
2023-03-15T04:12:18.468Z,42.7
2023-03-15T04:14:18.408Z,42.8
2023-03-15T04:16:18.505Z,42.6
2023-03-15T04:18:18.360Z,43.2
2023-03-15T04:20:18.370Z,43.5
2023-03-15T04:22:18.355Z,43.2
2023-03-15T04:24:18.618Z,43
2023-03-15T04:26:18.344Z,42.8
2023-03-15T04:28:18.401Z,42.4
2023-03-15T04:30:18.375Z,42.9
2023-03-15T04:32:18.387Z,42.7
2023-03-15T04:34:18.390Z,42.8
2023-03-15T04:36:18.453Z,43.3
2023-03-15T04:38:18.404Z,43.6
2023-03-15T04:40:18.350Z,43.7
2023-03-15T04:42:18.411Z,43.5
2023-03-15T04:44:18.332Z,43.4
2023-03-15T04:46:18.421Z,43.6
2023-03-15T04:48:18.321Z,43.9
2023-03-15T04:50:18.322Z,43.9
2023-03-15T04:52:18.329Z,44.1
2023-03-15T04:54:18.365Z,44.2
2023-03-15T04:56:18.377Z,43.7
2023-03-15T04:58:18.380Z,43.7
2023-03-15T05:00:18.328Z,43.9
2023-03-15T05:02:18.370Z,43.9
2023-03-15T05:04:18.360Z,43.9
2023-03-15T05:06:18.360Z,44
2023-03-15T05:08:18.322Z,44.4
2023-03-15T05:10:18.328Z,44.1
2023-03-15T05:12:18.326Z,44.1
2023-03-15T05:14:18.378Z,44.6
2023-03-15T05:16:18.348Z,44.6
2023-03-15T05:18:18.300Z,44.9
2023-03-15T05:20:18.301Z,45
2023-03-15T05:22:18.348Z,45.2
2023-03-15T05:24:18.298Z,45.3
2023-03-15T05:26:18.300Z,45.4
2023-03-15T05:28:18.362Z,45.2
2023-03-15T05:30:18.320Z,44.9
2023-03-15T05:32:18.314Z,44.9
2023-03-15T05:34:18.268Z,44.6
2023-03-15T05:36:18.303Z,44.6
2023-03-15T05:38:18.320Z,44.9
2023-03-15T05:40:18.340Z,45.4
2023-03-15T05:42:18.253Z,45
2023-03-15T05:44:18.260Z,45.3
2023-03-15T05:46:18.349Z,45.4
2023-03-15T05:48:18.264Z,45.5
2023-03-15T05:50:18.309Z,45.3
2023-03-15T05:52:18.256Z,45.2
2023-03-15T05:54:18.279Z,45.1
2023-03-15T05:56:18.237Z,45.4
2023-03-15T05:58:18.279Z,45.2
2023-03-15T06:00:18.235Z,45.2
2023-03-15T06:02:18.284Z,45.4
2023-03-15T06:04:18.258Z,45.6
2023-03-15T06:06:18.254Z,45.6
2023-03-15T06:08:18.256Z,45.8
2023-03-15T06:10:18.239Z,46.1
2023-03-15T06:12:18.254Z,46.1
2023-03-15T06:14:18.220Z,45.9
2023-03-15T06:16:18.237Z,45.6
2023-03-15T06:18:18.238Z,45.7
2023-03-15T06:20:18.220Z,45.8
2023-03-15T06:22:18.278Z,45.7
2023-03-15T06:24:18.251Z,45.5
2023-03-15T06:26:18.220Z,45.6
2023-03-15T06:28:18.196Z,44.8
2023-03-15T06:30:18.460Z,45.4
2023-03-15T06:32:18.261Z,45.8
2023-03-15T06:34:18.217Z,46.1
2023-03-15T06:36:18.179Z,46
2023-03-15T06:38:18.230Z,46.2
2023-03-15T06:40:18.290Z,46.1
2023-03-15T06:42:18.268Z,46.4
2023-03-15T06:44:18.161Z,46.2
2023-03-15T06:46:18.259Z,46.3
2023-03-15T06:48:18.243Z,46.5
2023-03-15T06:50:18.283Z,46.5
2023-03-15T06:52:18.240Z,46.5
2023-03-15T06:54:18.259Z,46.9
2023-03-15T06:56:18.146Z,46.8
2023-03-15T06:58:18.147Z,46.5
2023-03-15T07:00:18.234Z,46.7
2023-03-15T07:02:18.245Z,46.6
2023-03-15T07:04:18.212Z,46.7
2023-03-15T07:06:18.164Z,46.8
2023-03-15T07:08:18.202Z,46.5
2023-03-15T07:10:18.171Z,46.7
2023-03-15T07:12:18.199Z,47.1
2023-03-15T07:14:18.241Z,46.8
2023-03-15T07:16:18.244Z,46.7
2023-03-15T07:18:18.149Z,46.5
2023-03-15T07:20:18.168Z,46.4
2023-03-15T07:22:18.143Z,46.7
2023-03-15T07:24:18.126Z,46.8
2023-03-15T07:26:18.305Z,46.7
2023-03-15T07:28:18.124Z,46.8
2023-03-15T07:30:18.195Z,47
2023-03-15T07:32:18.420Z,47
2023-03-15T07:34:18.146Z,47.2
2023-03-15T07:36:18.109Z,48.3
2023-03-15T07:38:18.147Z,47.6
2023-03-15T07:40:18.148Z,47.4
2023-03-15T07:42:18.162Z,47.5
2023-03-15T07:44:18.168Z,47.4
2023-03-15T07:46:18.200Z,47.6
2023-03-15T07:48:18.107Z,47.7
2023-03-15T07:50:18.075Z,47.8
2023-03-15T07:52:18.108Z,48
2023-03-15T07:54:18.083Z,48
2023-03-15T07:56:19.688Z,47.8
2023-03-15T07:58:20.171Z,47.7
2023-03-15T08:00:18.123Z,47.8
2023-03-15T08:02:18.216Z,47.8
2023-03-15T08:04:18.058Z,47.8
2023-03-15T08:06:18.192Z,48
2023-03-15T08:08:18.097Z,48
2023-03-15T08:10:18.093Z,47.8
2023-03-15T08:12:18.060Z,47.9
2023-03-15T08:14:18.436Z,48
2023-03-15T08:16:18.093Z,47.7
2023-03-15T08:18:18.050Z,47.8
2023-03-15T08:20:18.085Z,48
2023-03-15T08:22:18.036Z,47.5
2023-03-15T08:24:18.032Z,47.7
2023-03-15T08:26:18.029Z,48.5
2023-03-15T08:28:18.086Z,48.6
2023-03-15T08:30:18.022Z,48.3
2023-03-15T08:32:18.042Z,48.3
2023-03-15T08:34:18.092Z,48.4
2023-03-15T08:36:18.082Z,48.5
2023-03-15T08:38:18.062Z,48.6
2023-03-15T08:40:18.028Z,49.5
2023-03-15T08:42:18.029Z,49
2023-03-15T08:44:18.056Z,49.3
2023-03-15T08:46:18.202Z,49
2023-03-15T08:48:18.007Z,48.9
2023-03-15T08:50:18.010Z,48.7
2023-03-15T08:52:18.348Z,48.7
2023-03-15T08:54:18.035Z,48.4
2023-03-15T08:56:18.053Z,48
2023-03-15T08:58:17.988Z,48.5
2023-03-15T09:00:18.035Z,49.2
2023-03-15T09:02:18.046Z,49.4
2023-03-15T09:04:18.033Z,49.2
2023-03-15T09:06:18.026Z,49.2
2023-03-15T09:08:17.984Z,49.4
2023-03-15T09:10:17.997Z,48.9
2023-03-15T09:12:18.010Z,48.9
2023-03-15T09:14:18.003Z,48.9
2023-03-15T09:16:17.996Z,48.9
2023-03-15T09:18:18.015Z,49.2
2023-03-15T09:20:17.969Z,49.6
2023-03-15T09:22:29.140Z,48.9
2023-03-15T09:24:17.962Z,49.1
2023-03-15T09:26:17.969Z,49.3
2023-03-15T09:28:17.966Z,49.3
2023-03-15T09:30:18.045Z,49.2
2023-03-15T09:32:17.970Z,49.2
2023-03-15T09:34:17.948Z,49.3
2023-03-15T09:36:17.955Z,49.4
2023-03-15T09:38:17.950Z,49.5
2023-03-15T09:40:18.008Z,49.4
2023-03-15T09:42:17.963Z,49.4
2023-03-15T09:44:17.990Z,49.1
2023-03-15T09:46:18.107Z,49.4
2023-03-15T09:48:18.014Z,49.5
2023-03-15T09:50:17.944Z,49.8
2023-03-15T09:52:17.937Z,50
2023-03-15T09:54:19.292Z,49.9
2023-03-15T09:56:17.985Z,49.8
2023-03-15T09:58:17.946Z,49.6
2023-03-15T10:00:17.956Z,49.6
2023-03-15T10:02:17.919Z,49.5
2023-03-15T10:04:17.911Z,49.9
2023-03-15T10:06:17.962Z,50.1
2023-03-15T10:08:17.929Z,50
2023-03-15T10:10:17.943Z,50.2
2023-03-15T10:12:17.931Z,50.1
2023-03-15T10:15:16.968Z,100
2023-03-15T10:15:16.978Z,49.9
2023-03-15T10:16:17.973Z,49.8
2023-03-15T10:18:17.885Z,50
2023-03-15T10:20:17.893Z,50.1
2023-03-15T10:22:17.883Z,50.5
2023-03-15T10:24:17.940Z,50.1
2023-03-15T10:26:17.904Z,49.9
2023-03-15T10:28:17.892Z,50.1
2023-03-15T10:30:17.882Z,50.3
2023-03-15T10:32:17.947Z,50.5
2023-03-15T10:34:17.916Z,50.5
2023-03-15T10:36:17.901Z,50.5
2023-03-15T10:38:17.902Z,50.6
2023-03-15T10:40:17.885Z,50.6
2023-03-15T10:42:17.912Z,50.5
2023-03-15T10:44:17.881Z,50.4
2023-03-15T10:46:17.914Z,50.4
2023-03-15T10:48:17.868Z,50.5
2023-03-15T10:50:17.920Z,50.7
2023-03-15T10:52:17.857Z,50.8
2023-03-15T10:54:17.863Z,50.9
2023-03-15T10:56:17.842Z,50.8
2023-03-15T10:58:17.884Z,50.9
2023-03-15T11:00:17.858Z,51
2023-03-15T11:02:17.846Z,51
2023-03-15T11:04:17.809Z,50.8
2023-03-15T11:06:17.904Z,50.8
2023-03-15T11:08:17.891Z,51.1
2023-03-15T11:10:17.841Z,51.1
2023-03-15T11:12:19.435Z,51.2
2023-03-15T11:14:17.829Z,51.3
2023-03-15T11:16:17.909Z,51.2
2023-03-15T11:18:17.833Z,51.9
2023-03-15T11:20:17.867Z,51.9
2023-03-15T11:22:17.791Z,51.5
2023-03-15T11:24:17.896Z,51.3
2023-03-15T11:26:25.703Z,51.5
2023-03-15T11:28:17.811Z,51.6
2023-03-15T11:30:17.975Z,51.8
2023-03-15T11:32:17.800Z,51.4
2023-03-15T11:34:17.919Z,51.5
2023-03-15T11:36:17.862Z,51.3
2023-03-15T11:38:17.802Z,51.3
2023-03-15T11:40:17.795Z,51.3
2023-03-15T11:42:17.806Z,51.5
2023-03-15T11:44:17.833Z,51.6
2023-03-15T11:46:17.786Z,51.8
2023-03-15T11:48:17.775Z,52.1
2023-03-15T11:50:17.837Z,51.9
2023-03-15T11:52:17.748Z,51.6
2023-03-15T11:54:17.752Z,51.8
2023-03-15T11:56:17.767Z,51.8
2023-03-15T11:58:17.870Z,51.7
2023-03-15T12:00:17.963Z,51.8
2023-03-15T12:02:17.837Z,51.8
2023-03-15T12:04:17.792Z,51.9
2023-03-15T12:06:17.766Z,51.5
2023-03-15T12:08:17.803Z,51.5
2023-03-15T12:10:17.755Z,52.4
2023-03-15T12:12:17.778Z,51.9
2023-03-15T12:14:17.731Z,52
2023-03-15T12:16:17.836Z,51.5
2023-03-15T12:18:17.799Z,51.6
2023-03-15T12:20:17.759Z,50.8
2023-03-15T12:22:17.716Z,51.1
2023-03-15T12:24:17.756Z,51.2
2023-03-15T12:26:17.824Z,51.3
2023-03-15T12:28:17.740Z,51.4
2023-03-15T12:30:17.752Z,51.2
2023-03-15T12:32:17.735Z,51.2
2023-03-15T12:34:17.766Z,51.4
2023-03-15T12:36:17.787Z,52
2023-03-15T12:38:17.719Z,51.4
2023-03-15T12:40:17.725Z,51.5
2023-03-15T12:42:17.702Z,51.3
2023-03-15T12:44:17.721Z,51
2023-03-15T12:46:17.741Z,51
2023-03-15T12:48:17.705Z,51
2023-03-15T12:50:17.684Z,51.2
2023-03-15T12:52:17.767Z,51.2
2023-03-15T12:54:17.671Z,50.6
2023-03-15T12:56:17.711Z,50.6
2023-03-15T12:58:17.666Z,50.6
2023-03-15T13:00:17.769Z,51
2023-03-15T13:02:17.713Z,50.5
2023-03-15T13:04:17.706Z,50.5
2023-03-15T13:06:17.667Z,49.9
2023-03-15T13:08:17.679Z,49.5
2023-03-15T13:10:17.731Z,49.2
2023-03-15T13:12:18.070Z,49.4
2023-03-15T13:14:17.641Z,49.6
2023-03-15T13:16:17.697Z,48
2023-03-15T13:18:17.713Z,48.4
2023-03-15T13:20:17.686Z,48.9
2023-03-15T13:22:17.676Z,48.8
2023-03-15T13:24:17.674Z,49.4
2023-03-15T13:26:17.687Z,48.5
2023-03-15T13:28:17.619Z,48.9
2023-03-15T13:30:17.688Z,48.8
2023-03-15T13:32:17.652Z,49
2023-03-15T13:34:17.657Z,48.5
2023-03-15T13:36:17.655Z,47.9
2023-03-15T13:38:17.684Z,48
2023-03-15T13:40:17.642Z,48
2023-03-15T13:42:17.640Z,48.5
2023-03-15T13:44:17.629Z,47
2023-03-15T13:46:17.622Z,46.1
2023-03-15T13:48:17.700Z,46.3
2023-03-15T13:50:17.646Z,46.2
2023-03-15T13:52:17.604Z,46.9
2023-03-15T13:54:17.637Z,46.1
2023-03-15T13:56:17.678Z,46.5
2023-03-15T13:58:17.606Z,46.8
2023-03-15T14:00:17.606Z,46.8
2023-03-15T14:02:17.606Z,46.3
2023-03-15T14:04:17.622Z,44.8
2023-03-15T14:06:17.672Z,44.5
2023-03-15T14:08:17.595Z,44.4
2023-03-15T14:10:17.592Z,44.6
2023-03-15T14:12:17.585Z,45.9
2023-03-15T14:14:17.639Z,43.6
2023-03-15T14:16:17.647Z,44
2023-03-15T14:18:17.589Z,44.4
2023-03-15T14:20:17.664Z,44.7
2023-03-15T14:22:17.599Z,44.8
2023-03-15T14:24:17.604Z,44.7
2023-03-15T14:26:17.595Z,43.3
2023-03-15T14:28:17.599Z,42.9
2023-03-15T14:30:17.563Z,42.7
2023-03-15T14:32:17.590Z,42.6
2023-03-15T14:34:17.613Z,43.4
2023-03-15T14:36:17.632Z,43.5
2023-03-15T14:38:17.579Z,43.6
2023-03-15T14:40:17.603Z,43.8
2023-03-15T14:42:17.622Z,42.4
2023-03-15T14:44:17.559Z,43
2023-03-15T14:46:17.645Z,42.4
2023-03-15T14:48:17.553Z,42.8
2023-03-15T14:50:17.594Z,41.7
2023-03-15T14:52:17.541Z,41.6
2023-03-15T14:54:17.576Z,41.7
2023-03-15T14:56:19.314Z,41.4
2023-03-15T14:58:17.552Z,41.5
2023-03-15T15:00:17.574Z,40.9
2023-03-15T15:02:17.616Z,40.4
2023-03-15T15:04:17.515Z,40.7
2023-03-15T15:06:17.543Z,41.6
2023-03-15T15:08:17.598Z,41.5
2023-03-15T15:10:17.512Z,40.9
2023-03-15T15:12:17.540Z,40.9
2023-03-15T15:14:17.515Z,40.5
2023-03-15T15:16:17.626Z,40.7
2023-03-15T15:18:17.553Z,40.5
2023-03-15T15:20:17.496Z,40.2
2023-03-15T15:22:17.497Z,40.6
2023-03-15T15:24:17.578Z,41.1
2023-03-15T15:26:17.532Z,39.7
2023-03-15T15:28:31.202Z,39.5
2023-03-15T15:30:17.513Z,39.1
2023-03-15T15:32:17.468Z,38.4
2023-03-15T15:34:17.482Z,38.6
2023-03-15T15:36:17.549Z,39.6
2023-03-15T15:38:17.486Z,38.9
2023-03-15T15:40:17.472Z,39.4
2023-03-15T15:42:17.505Z,38.8
2023-03-15T15:44:17.671Z,39.4
2023-03-15T15:46:17.517Z,38.8
2023-03-15T15:48:17.475Z,38
2023-03-15T15:50:17.469Z,37.8
2023-03-15T15:52:17.522Z,37.9
2023-03-15T15:54:17.453Z,37
2023-03-15T15:56:17.484Z,37.5
2023-03-15T15:58:17.565Z,38.3
2023-03-15T16:00:17.456Z,38.1
2023-03-15T16:02:17.537Z,37.9
2023-03-15T16:04:17.437Z,36.8
2023-03-15T16:06:17.434Z,37.2
2023-03-15T16:08:17.489Z,38.3
2023-03-15T16:10:17.477Z,37.4
2023-03-15T16:12:17.438Z,37.2
2023-03-15T16:14:17.424Z,37.3
2023-03-15T16:16:17.491Z,38
2023-03-15T16:18:17.505Z,36.8
2023-03-15T16:20:17.445Z,36.5
2023-03-15T16:22:17.423Z,36.4
2023-03-15T16:24:17.434Z,36.2
2023-03-15T16:26:17.412Z,37
2023-03-15T16:28:17.459Z,36
2023-03-15T16:30:17.415Z,36
2023-03-15T16:32:22.481Z,35.4
2023-03-15T16:34:17.415Z,36.4
2023-03-15T16:36:17.444Z,35.8
2023-03-15T16:38:17.414Z,36.1
2023-03-15T16:40:17.420Z,34.9
2023-03-15T16:42:17.373Z,34
2023-03-15T16:44:17.417Z,34.4
2023-03-15T16:46:17.541Z,35
2023-03-15T16:48:17.384Z,35.4
2023-03-15T16:50:17.413Z,36
2023-03-15T16:52:17.390Z,34.3
2023-03-15T16:54:27.510Z,34.6
2023-03-15T16:56:17.369Z,34.3
2023-03-15T16:58:17.377Z,34.7
2023-03-15T17:00:17.370Z,34.8
2023-03-15T17:02:17.367Z,33.5
2023-03-15T17:04:17.536Z,33.8
2023-03-15T17:06:17.404Z,33.3
2023-03-15T17:08:17.354Z,33.2
2023-03-15T17:10:17.350Z,32.3
2023-03-15T17:12:17.421Z,32.8
2023-03-15T17:14:17.345Z,32.7
2023-03-15T17:16:17.372Z,32.9
2023-03-15T17:18:17.354Z,32.9
2023-03-15T17:20:17.397Z,34.1
2023-03-15T17:22:17.389Z,33.8
2023-03-15T17:24:17.331Z,34.1
2023-03-15T17:26:17.365Z,34
2023-03-15T17:28:17.322Z,32.7
2023-03-15T17:30:17.395Z,31.8
2023-03-15T17:32:17.438Z,32.8
2023-03-15T17:34:17.327Z,32.3
2023-03-15T17:36:17.395Z,33.3
2023-03-15T17:38:17.351Z,33.1
2023-03-15T17:40:17.326Z,30.9
2023-03-15T17:42:17.320Z,30.8
2023-03-15T17:44:17.329Z,30.3
2023-03-15T17:46:17.433Z,31.1
2023-03-15T17:48:17.342Z,30.6
2023-03-15T17:50:17.293Z,30.5
2023-03-15T17:52:17.336Z,30.8
2023-03-15T17:54:17.312Z,31.4
2023-03-15T17:56:17.330Z,30.4
2023-03-15T17:58:17.308Z,29.7
2023-03-15T18:00:17.365Z,29.8
2023-03-15T18:02:17.339Z,30.4
2023-03-15T18:04:17.322Z,30.6
2023-03-15T18:06:17.335Z,29.8
2023-03-15T18:08:17.289Z,28.8
2023-03-15T18:10:17.293Z,28.6
2023-03-15T18:12:17.269Z,28.8
2023-03-15T18:14:17.261Z,29.9
2023-03-15T18:16:17.362Z,29.1
2023-03-15T18:18:17.285Z,28.7
2023-03-15T18:20:17.263Z,28.5
2023-03-15T18:22:17.304Z,29.5
2023-03-15T18:24:17.349Z,29.6
2023-03-15T18:26:17.266Z,29.4
2023-03-15T18:28:17.256Z,29.1
2023-03-15T18:30:17.244Z,27.9
2023-03-15T18:32:17.286Z,29.5
2023-03-15T18:34:17.273Z,28
2023-03-15T18:36:17.324Z,28.6
2023-03-15T18:38:17.230Z,28.8
2023-03-15T18:40:17.282Z,28.1
2023-03-15T18:42:17.257Z,27.7
2023-03-15T18:44:17.277Z,28.1
2023-03-15T18:46:17.337Z,28.1
2023-03-15T18:48:18.350Z,28.2
2023-03-15T18:50:17.221Z,28
2023-03-15T18:52:17.280Z,28.7
2023-03-15T18:54:17.320Z,27.2
2023-03-15T18:56:17.239Z,26.7
2023-03-15T18:58:17.300Z,26.7
2023-03-15T19:00:17.213Z,26.8
2023-03-15T19:02:17.321Z,25.6
2023-03-15T19:04:17.227Z,25.4
2023-03-15T19:06:17.211Z,24.6
2023-03-15T19:08:17.188Z,24.8
2023-03-15T19:10:17.256Z,23.7
2023-03-15T19:12:17.207Z,24.1
2023-03-15T19:14:17.196Z,24.6
2023-03-15T19:16:17.207Z,24.2
2023-03-15T19:18:17.200Z,24.1
2023-03-15T19:20:17.237Z,24.5
2023-03-15T19:22:17.209Z,24.3
2023-03-15T19:24:17.183Z,25.2
2023-03-15T19:26:17.194Z,24.9
2023-03-15T19:28:17.281Z,25.4
2023-03-15T19:30:17.170Z,24
2023-03-15T19:32:17.208Z,25.4
2023-03-15T19:34:17.173Z,24.2
2023-03-15T19:36:17.260Z,24.1
2023-03-15T19:38:17.206Z,22.8
2023-03-15T19:40:17.170Z,22.5
2023-03-15T19:42:17.192Z,22.6
2023-03-15T19:44:17.146Z,23.5
2023-03-15T19:46:17.265Z,22.4
2023-03-15T19:48:17.135Z,22.6
2023-03-15T19:50:17.212Z,22.3
2023-03-15T19:52:17.221Z,21.9
2023-03-15T19:54:17.179Z,22
2023-03-15T19:56:17.256Z,22.3
2023-03-15T19:58:17.188Z,22.9
2023-03-15T20:00:17.165Z,21.6
2023-03-15T20:02:17.122Z,21.5
2023-03-15T20:04:17.285Z,22.2
2023-03-15T20:06:17.125Z,22.2
2023-03-15T20:08:17.184Z,22.9
2023-03-15T20:10:17.126Z,22.6
2023-03-15T20:12:17.157Z,21.6
2023-03-15T20:14:17.168Z,21
2023-03-15T20:16:17.197Z,21.1
2023-03-15T20:18:17.154Z,21.5
2023-03-15T20:20:17.121Z,22.6
2023-03-15T20:22:17.190Z,22.5
2023-03-15T20:24:17.112Z,22.8
2023-03-15T20:26:17.124Z,22.2
2023-03-15T20:28:17.126Z,23.3
2023-03-15T20:30:17.147Z,22.7
2023-03-15T20:32:17.153Z,22.5
2023-03-15T20:34:17.122Z,24.1
2023-03-15T20:36:17.166Z,23.9
2023-03-15T20:38:17.101Z,23.5
2023-03-15T20:40:17.153Z,23.3
2023-03-15T20:42:17.100Z,21.8
2023-03-15T20:44:17.078Z,21.7
2023-03-15T20:46:17.164Z,22.4
2023-03-15T20:48:17.077Z,22.2
2023-03-15T20:50:17.131Z,22.7
2023-03-15T20:52:17.094Z,21.4
2023-03-15T20:54:17.108Z,20.8
2023-03-15T20:56:17.081Z,20.8
2023-03-15T20:58:17.105Z,21
2023-03-15T21:00:17.079Z,21.8
2023-03-15T21:02:17.074Z,21.2
2023-03-15T21:04:17.065Z,21.4
2023-03-15T21:06:17.111Z,21.3
2023-03-15T21:08:17.092Z,21.5
2023-03-15T21:10:17.112Z,21.3
2023-03-15T21:12:17.073Z,21.9
2023-03-15T21:14:17.052Z,21.1
2023-03-15T21:16:17.161Z,21.5
2023-03-15T21:18:17.069Z,22.1
2023-03-15T21:20:17.063Z,21.4
2023-03-15T21:22:17.044Z,20.8
2023-03-15T21:24:17.024Z,20.5
2023-03-15T21:26:17.072Z,20.4
2023-03-15T21:28:17.039Z,20.3
2023-03-15T21:30:17.040Z,20.6
2023-03-15T21:32:17.031Z,21.4
2023-03-15T21:34:17.023Z,22
2023-03-15T21:36:17.040Z,21.6
2023-03-15T21:38:17.041Z,20.9
2023-03-15T21:40:16.989Z,20.6
2023-03-15T21:42:17.006Z,21.5
2023-03-15T21:44:17.064Z,20.9
2023-03-15T21:46:17.160Z,20.8
2023-03-15T21:48:16.982Z,21.3
2023-03-15T21:50:17.008Z,21
2023-03-15T21:52:16.993Z,21.6
2023-03-15T21:54:17.020Z,22
2023-03-15T21:56:16.989Z,21.5
2023-03-15T21:58:16.978Z,21.8
2023-03-15T22:00:16.999Z,22
2023-03-15T22:02:16.980Z,21.8
2023-03-15T22:04:17.040Z,22.3
2023-03-15T22:06:17.001Z,21.9
2023-03-15T22:08:17.004Z,22
2023-03-15T22:10:16.947Z,22
2023-03-15T22:12:17.005Z,22.3
2023-03-15T22:14:17.002Z,22.6
2023-03-15T22:16:17.000Z,22.3
2023-03-15T22:18:16.950Z,22.3
2023-03-15T22:20:17.188Z,22.5
2023-03-15T22:22:16.962Z,22.9
2023-03-15T22:24:16.950Z,23.3
2023-03-15T22:26:16.953Z,23.3
2023-03-15T22:28:16.962Z,22.8
2023-03-15T22:30:16.991Z,22.9
2023-03-15T22:32:16.962Z,23.4
2023-03-15T22:34:16.929Z,24
2023-03-15T22:36:16.930Z,24.3
2023-03-15T22:38:17.010Z,23.2
2023-03-15T22:40:17.096Z,23.3
2023-03-15T22:42:16.926Z,24
2023-03-15T22:44:16.959Z,24.5
2023-03-15T22:46:17.009Z,24.5
2023-03-15T22:48:16.951Z,24.6
2023-03-15T22:50:16.957Z,23.7
2023-03-15T22:52:16.941Z,24.3
2023-03-15T22:54:16.961Z,24.3
2023-03-15T22:56:16.977Z,24.6
2023-03-15T22:58:16.943Z,24.2
2023-03-15T23:00:16.908Z,24
2023-03-15T23:02:16.985Z,24.6
2023-03-15T23:04:17.111Z,25.1
2023-03-15T23:06:16.933Z,24.9
2023-03-15T23:08:16.905Z,24.9
2023-03-15T23:10:16.930Z,25.4
2023-03-15T23:12:19.847Z,24.6
2023-03-15T23:14:16.923Z,25.2
2023-03-15T23:16:16.931Z,25.4
2023-03-15T23:18:16.883Z,25.4
2023-03-15T23:20:16.949Z,25.1
2023-03-15T23:22:16.947Z,25.6
2023-03-15T23:24:16.888Z,26
2023-03-15T23:26:16.888Z,26.2
2023-03-15T23:28:16.920Z,26.4
2023-03-15T23:30:16.894Z,27.2
2023-03-15T23:32:16.924Z,27.1
2023-03-15T23:34:16.905Z,27.5
2023-03-15T23:36:16.893Z,27.4
2023-03-15T23:38:16.914Z,27.5
2023-03-15T23:40:16.931Z,28.1
2023-03-15T23:42:16.869Z,28
2023-03-15T23:44:16.908Z,28.1
2023-03-15T23:46:16.940Z,28.3
2023-03-15T23:48:16.868Z,28.5
2023-03-15T23:50:16.941Z,28.8
2023-03-15T23:52:16.866Z,29
2023-03-15T23:54:16.853Z,29
2023-03-15T23:56:16.881Z,29.2
2023-03-15T23:58:16.913Z,29.6
